sensor_id;sensor_type;location;lat;lon;timestamp;P1;durP1;ratioP1;P2;durP2;ratioP2
61389;SDS011;47260;48.274;19.814;2023-04-30T00:01:18;26.10;;;16.95;;
61389;SDS011;47260;48.274;19.814;2023-04-30T00:02:50;21.42;;;15.73;;
61389;SDS011;47260;48.274;19.814;2023-04-30T00:04:21;23.05;;;16.52;;
61389;SDS011;47260;48.274;19.814;2023-04-30T00:05:52;21.27;;;16.38;;
61389;SDS011;47260;48.274;19.814;2023-04-30T00:07:24;21.40;;;15.65;;
61389;SDS011;47260;48.274;19.814;2023-04-30T00:08:56;21.48;;;16.17;;
61389;SDS011;47260;48.274;19.814;2023-04-30T00:10:29;22.73;;;16.08;;
61389;SDS011;47260;48.274;19.814;2023-04-30T00:12:00;22.98;;;16.30;;
61389;SDS011;47260;48.274;19.814;2023-04-30T00:13:32;24.48;;;17.88;;
61389;SDS011;47260;48.274;19.814;2023-04-30T00:15:04;33.05;;;19.52;;
61389;SDS011;47260;48.274;19.814;2023-04-30T00:16:37;28.40;;;19.50;;
61389;SDS011;47260;48.274;19.814;2023-04-30T00:18:07;24.10;;;19.20;;
61389;SDS011;47260;48.274;19.814;2023-04-30T00:19:39;21.63;;;17.77;;
61389;SDS011;47260;48.274;19.814;2023-04-30T00:21:11;23.70;;;17.35;;
61389;SDS011;47260;48.274;19.814;2023-04-30T00:22:42;25.23;;;18.63;;
61389;SDS011;47260;48.274;19.814;2023-04-30T00:24:14;23.00;;;17.80;;
61389;SDS011;47260;48.274;19.814;2023-04-30T00:25:47;24.17;;;16.90;;
61389;SDS011;47260;48.274;19.814;2023-04-30T00:27:19;25.15;;;16.83;;
61389;SDS011;47260;48.274;19.814;2023-04-30T00:28:51;23.08;;;16.23;;
61389;SDS011;47260;48.274;19.814;2023-04-30T00:30:22;20.83;;;15.98;;
61389;SDS011;47260;48.274;19.814;2023-04-30T00:31:54;23.20;;;17.63;;
61389;SDS011;47260;48.274;19.814;2023-04-30T00:33:25;20.92;;;17.00;;
61389;SDS011;47260;48.274;19.814;2023-04-30T00:34:56;21.80;;;16.83;;
61389;SDS011;47260;48.274;19.814;2023-04-30T00:36:28;20.30;;;15.90;;
61389;SDS011;47260;48.274;19.814;2023-04-30T00:38:00;21.00;;;17.05;;
61389;SDS011;47260;48.274;19.814;2023-04-30T00:39:31;23.95;;;17.10;;
61389;SDS011;47260;48.274;19.814;2023-04-30T00:41:05;24.75;;;18.38;;
61389;SDS011;47260;48.274;19.814;2023-04-30T00:42:36;24.67;;;17.17;;
61389;SDS011;47260;48.274;19.814;2023-04-30T00:44:08;21.45;;;16.23;;
61389;SDS011;47260;48.274;19.814;2023-04-30T00:45:39;21.88;;;16.15;;
61389;SDS011;47260;48.274;19.814;2023-04-30T00:47:11;23.40;;;16.70;;
61389;SDS011;47260;48.274;19.814;2023-04-30T00:48:43;24.38;;;17.25;;
61389;SDS011;47260;48.274;19.814;2023-04-30T00:50:15;23.55;;;16.70;;
61389;SDS011;47260;48.274;19.814;2023-04-30T00:51:47;18.48;;;15.35;;
61389;SDS011;47260;48.274;19.814;2023-04-30T00:53:19;22.30;;;15.60;;
61389;SDS011;47260;48.274;19.814;2023-04-30T00:54:51;24.42;;;18.05;;
61389;SDS011;47260;48.274;19.814;2023-04-30T00:56:24;24.17;;;17.83;;
61389;SDS011;47260;48.274;19.814;2023-04-30T00:57:56;22.13;;;17.08;;
61389;SDS011;47260;48.274;19.814;2023-04-30T00:59:30;21.67;;;16.63;;
61389;SDS011;47260;48.274;19.814;2023-04-30T01:01:02;22.58;;;16.42;;
61389;SDS011;47260;48.274;19.814;2023-04-30T01:02:34;21.67;;;16.77;;
61389;SDS011;47260;48.274;19.814;2023-04-30T01:04:06;23.75;;;16.38;;
61389;SDS011;47260;48.274;19.814;2023-04-30T01:05:36;20.10;;;15.30;;
61389;SDS011;47260;48.274;19.814;2023-04-30T01:07:08;20.40;;;15.13;;
61389;SDS011;47260;48.274;19.814;2023-04-30T01:08:40;19.60;;;15.38;;
61389;SDS011;47260;48.274;19.814;2023-04-30T01:10:11;17.98;;;14.65;;
61389;SDS011;47260;48.274;19.814;2023-04-30T01:11:50;19.20;;;15.30;;
61389;SDS011;47260;48.274;19.814;2023-04-30T01:13:27;21.40;;;15.82;;
61389;SDS011;47260;48.274;19.814;2023-04-30T01:15:03;22.90;;;15.75;;
61389;SDS011;47260;48.274;19.814;2023-04-30T01:16:39;19.67;;;14.75;;
61389;SDS011;47260;48.274;19.814;2023-04-30T01:18:15;19.67;;;14.95;;
61389;SDS011;47260;48.274;19.814;2023-04-30T01:19:49;19.15;;;14.73;;
61389;SDS011;47260;48.274;19.814;2023-04-30T01:21:20;19.42;;;15.43;;
61389;SDS011;47260;48.274;19.814;2023-04-30T01:22:53;23.23;;;17.65;;
61389;SDS011;47260;48.274;19.814;2023-04-30T01:24:36;21.52;;;16.05;;
61389;SDS011;47260;48.274;19.814;2023-04-30T01:26:23;22.10;;;15.98;;
61389;SDS011;47260;48.274;19.814;2023-04-30T01:28:08;20.25;;;16.10;;
61389;SDS011;47260;48.274;19.814;2023-04-30T01:29:43;22.98;;;15.73;;
61389;SDS011;47260;48.274;19.814;2023-04-30T01:31:14;23.20;;;16.15;;
61389;SDS011;47260;48.274;19.814;2023-04-30T01:32:48;22.10;;;16.02;;
61389;SDS011;47260;48.274;19.814;2023-04-30T01:34:19;21.60;;;14.88;;
61389;SDS011;47260;48.274;19.814;2023-04-30T01:36:07;19.95;;;15.52;;
61389;SDS011;47260;48.274;19.814;2023-04-30T01:37:51;20.58;;;15.15;;
61389;SDS011;47260;48.274;19.814;2023-04-30T01:39:33;19.50;;;15.02;;
61389;SDS011;47260;48.274;19.814;2023-04-30T01:41:16;23.02;;;14.95;;
61389;SDS011;47260;48.274;19.814;2023-04-30T01:42:58;22.17;;;16.35;;
61389;SDS011;47260;48.274;19.814;2023-04-30T01:44:52;22.52;;;16.80;;
61389;SDS011;47260;48.274;19.814;2023-04-30T01:46:28;25.48;;;16.42;;
61389;SDS011;47260;48.274;19.814;2023-04-30T01:48:09;22.77;;;16.63;;
61389;SDS011;47260;48.274;19.814;2023-04-30T01:49:50;23.88;;;16.00;;
61389;SDS011;47260;48.274;19.814;2023-04-30T01:51:31;22.88;;;16.25;;
61389;SDS011;47260;48.274;19.814;2023-04-30T01:53:12;23.60;;;17.58;;
61389;SDS011;47260;48.274;19.814;2023-04-30T01:54:50;19.85;;;14.40;;
61389;SDS011;47260;48.274;19.814;2023-04-30T01:56:26;21.13;;;15.10;;
61389;SDS011;47260;48.274;19.814;2023-04-30T01:58:02;20.33;;;14.57;;
61389;SDS011;47260;48.274;19.814;2023-04-30T01:59:37;19.92;;;16.02;;
61389;SDS011;47260;48.274;19.814;2023-04-30T02:02:58;22.73;;;15.77;;
61389;SDS011;47260;48.274;19.814;2023-04-30T02:04:30;19.13;;;14.00;;
61389;SDS011;47260;48.274;19.814;2023-04-30T02:06:01;20.05;;;14.70;;
61389;SDS011;47260;48.274;19.814;2023-04-30T02:07:36;21.90;;;14.77;;
61389;SDS011;47260;48.274;19.814;2023-04-30T02:09:08;21.48;;;14.20;;
61389;SDS011;47260;48.274;19.814;2023-04-30T02:10:40;20.58;;;14.77;;
61389;SDS011;47260;48.274;19.814;2023-04-30T02:12:12;19.67;;;14.93;;
61389;SDS011;47260;48.274;19.814;2023-04-30T02:13:44;20.83;;;14.43;;
61389;SDS011;47260;48.274;19.814;2023-04-30T02:15:15;19.77;;;14.32;;
61389;SDS011;47260;48.274;19.814;2023-04-30T02:16:49;18.48;;;14.23;;
61389;SDS011;47260;48.274;19.814;2023-04-30T02:18:20;17.45;;;13.75;;
61389;SDS011;47260;48.274;19.814;2023-04-30T02:19:52;16.27;;;13.55;;
61389;SDS011;47260;48.274;19.814;2023-04-30T02:21:23;16.55;;;13.90;;
61389;SDS011;47260;48.274;19.814;2023-04-30T02:22:54;19.02;;;13.82;;
61389;SDS011;47260;48.274;19.814;2023-04-30T02:24:26;19.15;;;14.20;;
61389;SDS011;47260;48.274;19.814;2023-04-30T02:25:58;17.10;;;13.35;;
61389;SDS011;47260;48.274;19.814;2023-04-30T02:27:30;17.55;;;14.02;;
61389;SDS011;47260;48.274;19.814;2023-04-30T02:29:02;22.20;;;14.38;;
61389;SDS011;47260;48.274;19.814;2023-04-30T02:30:34;20.25;;;14.82;;
61389;SDS011;47260;48.274;19.814;2023-04-30T02:32:07;18.92;;;15.20;;
61389;SDS011;47260;48.274;19.814;2023-04-30T02:33:38;18.67;;;14.75;;
61389;SDS011;47260;48.274;19.814;2023-04-30T02:35:10;20.83;;;16.05;;
61389;SDS011;47260;48.274;19.814;2023-04-30T02:36:41;21.48;;;15.00;;
61389;SDS011;47260;48.274;19.814;2023-04-30T02:38:13;23.10;;;15.18;;
61389;SDS011;47260;48.274;19.814;2023-04-30T02:39:45;21.02;;;14.52;;
61389;SDS011;47260;48.274;19.814;2023-04-30T02:41:17;20.67;;;14.88;;
61389;SDS011;47260;48.274;19.814;2023-04-30T02:42:48;17.20;;;14.07;;
61389;SDS011;47260;48.274;19.814;2023-04-30T02:44:20;20.50;;;14.30;;
61389;SDS011;47260;48.274;19.814;2023-04-30T02:45:51;20.95;;;14.20;;
61389;SDS011;47260;48.274;19.814;2023-04-30T02:47:25;18.52;;;14.45;;
61389;SDS011;47260;48.274;19.814;2023-04-30T02:48:56;19.33;;;14.32;;
61389;SDS011;47260;48.274;19.814;2023-04-30T02:50:27;19.10;;;13.90;;
61389;SDS011;47260;48.274;19.814;2023-04-30T02:51:59;18.35;;;15.82;;
61389;SDS011;47260;48.274;19.814;2023-04-30T02:53:30;20.17;;;14.43;;
61389;SDS011;47260;48.274;19.814;2023-04-30T02:55:01;15.82;;;13.65;;
61389;SDS011;47260;48.274;19.814;2023-04-30T02:56:33;20.75;;;15.05;;
61389;SDS011;47260;48.274;19.814;2023-04-30T02:58:05;15.18;;;12.52;;
61389;SDS011;47260;48.274;19.814;2023-04-30T02:59:37;17.20;;;13.52;;
61389;SDS011;47260;48.274;19.814;2023-04-30T03:01:09;17.25;;;13.20;;
61389;SDS011;47260;48.274;19.814;2023-04-30T03:02:41;15.85;;;12.55;;
61389;SDS011;47260;48.274;19.814;2023-04-30T03:04:13;15.65;;;13.50;;
61389;SDS011;47260;48.274;19.814;2023-04-30T03:05:45;16.15;;;12.65;;
61389;SDS011;47260;48.274;19.814;2023-04-30T03:07:16;16.90;;;13.45;;
61389;SDS011;47260;48.274;19.814;2023-04-30T03:08:48;14.05;;;12.50;;
61389;SDS011;47260;48.274;19.814;2023-04-30T03:10:20;18.08;;;13.35;;
61389;SDS011;47260;48.274;19.814;2023-04-30T03:11:51;17.17;;;13.00;;
61389;SDS011;47260;48.274;19.814;2023-04-30T03:13:22;18.20;;;12.63;;
61389;SDS011;47260;48.274;19.814;2023-04-30T03:14:55;16.30;;;12.90;;
61389;SDS011;47260;48.274;19.814;2023-04-30T03:16:26;19.10;;;13.35;;
61389;SDS011;47260;48.274;19.814;2023-04-30T03:18:01;15.75;;;13.40;;
61389;SDS011;47260;48.274;19.814;2023-04-30T03:19:34;20.30;;;13.60;;
61389;SDS011;47260;48.274;19.814;2023-04-30T03:21:07;17.05;;;13.18;;
61389;SDS011;47260;48.274;19.814;2023-04-30T03:22:40;15.00;;;13.27;;
61389;SDS011;47260;48.274;19.814;2023-04-30T03:24:13;19.52;;;13.38;;
61389;SDS011;47260;48.274;19.814;2023-04-30T03:25:44;16.48;;;12.88;;
61389;SDS011;47260;48.274;19.814;2023-04-30T03:27:16;14.43;;;12.07;;
61389;SDS011;47260;48.274;19.814;2023-04-30T03:28:47;16.98;;;12.75;;
61389;SDS011;47260;48.274;19.814;2023-04-30T03:30:19;19.25;;;11.95;;
61389;SDS011;47260;48.274;19.814;2023-04-30T03:31:50;15.25;;;12.30;;
61389;SDS011;47260;48.274;19.814;2023-04-30T03:33:24;18.75;;;12.50;;
61389;SDS011;47260;48.274;19.814;2023-04-30T03:34:55;18.27;;;12.68;;
61389;SDS011;47260;48.274;19.814;2023-04-30T03:36:27;14.80;;;12.57;;
61389;SDS011;47260;48.274;19.814;2023-04-30T03:37:59;17.88;;;13.35;;
61389;SDS011;47260;48.274;19.814;2023-04-30T03:39:31;17.15;;;12.60;;
61389;SDS011;47260;48.274;19.814;2023-04-30T03:41:03;19.08;;;13.35;;
61389;SDS011;47260;48.274;19.814;2023-04-30T03:42:35;18.08;;;13.80;;
61389;SDS011;47260;48.274;19.814;2023-04-30T03:44:06;16.75;;;13.02;;
61389;SDS011;47260;48.274;19.814;2023-04-30T03:45:44;16.10;;;12.88;;
61389;SDS011;47260;48.274;19.814;2023-04-30T03:47:16;17.80;;;13.82;;
61389;SDS011;47260;48.274;19.814;2023-04-30T03:48:49;17.23;;;13.35;;
61389;SDS011;47260;48.274;19.814;2023-04-30T03:50:21;16.38;;;13.15;;
61389;SDS011;47260;48.274;19.814;2023-04-30T03:51:52;18.00;;;11.85;;
61389;SDS011;47260;48.274;19.814;2023-04-30T03:53:23;20.15;;;13.63;;
61389;SDS011;47260;48.274;19.814;2023-04-30T03:54:56;19.88;;;14.60;;
61389;SDS011;47260;48.274;19.814;2023-04-30T03:56:26;17.30;;;13.65;;
61389;SDS011;47260;48.274;19.814;2023-04-30T03:57:58;17.77;;;13.40;;
61389;SDS011;47260;48.274;19.814;2023-04-30T03:59:30;17.45;;;12.65;;
61389;SDS011;47260;48.274;19.814;2023-04-30T04:01:02;13.50;;;11.50;;
61389;SDS011;47260;48.274;19.814;2023-04-30T04:02:34;17.15;;;12.30;;
61389;SDS011;47260;48.274;19.814;2023-04-30T04:04:07;15.45;;;12.38;;
61389;SDS011;47260;48.274;19.814;2023-04-30T04:05:40;14.57;;;11.75;;
61389;SDS011;47260;48.274;19.814;2023-04-30T04:07:11;18.20;;;13.25;;
61389;SDS011;47260;48.274;19.814;2023-04-30T04:08:44;16.15;;;12.55;;
61389;SDS011;47260;48.274;19.814;2023-04-30T04:10:15;17.63;;;12.65;;
61389;SDS011;47260;48.274;19.814;2023-04-30T04:11:47;18.70;;;13.20;;
61389;SDS011;47260;48.274;19.814;2023-04-30T04:13:19;17.13;;;13.70;;
61389;SDS011;47260;48.274;19.814;2023-04-30T04:14:51;16.42;;;12.95;;
61389;SDS011;47260;48.274;19.814;2023-04-30T04:16:22;16.85;;;12.50;;
61389;SDS011;47260;48.274;19.814;2023-04-30T04:17:53;18.73;;;13.20;;
61389;SDS011;47260;48.274;19.814;2023-04-30T04:19:26;16.48;;;13.07;;
61389;SDS011;47260;48.274;19.814;2023-04-30T04:20:59;15.00;;;13.40;;
61389;SDS011;47260;48.274;19.814;2023-04-30T04:22:33;19.95;;;13.13;;
61389;SDS011;47260;48.274;19.814;2023-04-30T04:24:04;16.05;;;13.02;;
61389;SDS011;47260;48.274;19.814;2023-04-30T04:25:38;14.65;;;12.65;;
61389;SDS011;47260;48.274;19.814;2023-04-30T04:27:10;16.30;;;12.40;;
61389;SDS011;47260;48.274;19.814;2023-04-30T04:28:42;19.02;;;12.90;;
61389;SDS011;47260;48.274;19.814;2023-04-30T04:30:14;15.73;;;12.00;;
61389;SDS011;47260;48.274;19.814;2023-04-30T04:31:46;16.33;;;11.45;;
61389;SDS011;47260;48.274;19.814;2023-04-30T04:33:18;24.20;;;13.63;;
61389;SDS011;47260;48.274;19.814;2023-04-30T04:34:52;16.40;;;11.88;;
61389;SDS011;47260;48.274;19.814;2023-04-30T04:36:24;16.20;;;12.63;;
61389;SDS011;47260;48.274;19.814;2023-04-30T04:37:56;16.00;;;11.88;;
61389;SDS011;47260;48.274;19.814;2023-04-30T04:39:28;14.90;;;11.70;;
61389;SDS011;47260;48.274;19.814;2023-04-30T04:41:00;13.68;;;10.80;;
61389;SDS011;47260;48.274;19.814;2023-04-30T04:42:32;13.25;;;11.82;;
61389;SDS011;47260;48.274;19.814;2023-04-30T04:44:03;12.43;;;11.10;;
61389;SDS011;47260;48.274;19.814;2023-04-30T04:45:35;13.82;;;11.35;;
61389;SDS011;47260;48.274;19.814;2023-04-30T04:47:07;13.65;;;10.30;;
61389;SDS011;47260;48.274;19.814;2023-04-30T04:48:41;12.60;;;9.73;;
61389;SDS011;47260;48.274;19.814;2023-04-30T04:50:15;14.52;;;10.77;;
61389;SDS011;47260;48.274;19.814;2023-04-30T04:51:46;12.57;;;10.75;;
61389;SDS011;47260;48.274;19.814;2023-04-30T04:53:18;11.98;;;10.73;;
61389;SDS011;47260;48.274;19.814;2023-04-30T04:54:50;15.38;;;10.65;;
61389;SDS011;47260;48.274;19.814;2023-04-30T04:56:22;13.75;;;10.48;;
61389;SDS011;47260;48.274;19.814;2023-04-30T04:57:54;13.88;;;9.95;;
61389;SDS011;47260;48.274;19.814;2023-04-30T04:59:25;14.80;;;11.45;;
61389;SDS011;47260;48.274;19.814;2023-04-30T05:00:58;12.57;;;10.07;;
61389;SDS011;47260;48.274;19.814;2023-04-30T05:02:30;11.52;;;10.32;;
61389;SDS011;47260;48.274;19.814;2023-04-30T05:04:01;13.35;;;11.45;;
61389;SDS011;47260;48.274;19.814;2023-04-30T05:05:34;12.63;;;10.98;;
61389;SDS011;47260;48.274;19.814;2023-04-30T05:07:06;15.30;;;13.73;;
61389;SDS011;47260;48.274;19.814;2023-04-30T05:08:37;24.05;;;16.65;;
61389;SDS011;47260;48.274;19.814;2023-04-30T05:10:09;21.88;;;18.80;;
61389;SDS011;47260;48.274;19.814;2023-04-30T05:11:40;27.10;;;22.63;;
61389;SDS011;47260;48.274;19.814;2023-04-30T05:13:12;23.98;;;21.17;;
61389;SDS011;47260;48.274;19.814;2023-04-30T05:14:43;24.45;;;20.60;;
61389;SDS011;47260;48.274;19.814;2023-04-30T05:16:16;21.17;;;18.85;;
61389;SDS011;47260;48.274;19.814;2023-04-30T05:17:47;18.75;;;16.60;;
61389;SDS011;47260;48.274;19.814;2023-04-30T05:19:19;20.05;;;17.95;;
61389;SDS011;47260;48.274;19.814;2023-04-30T05:20:52;21.35;;;19.05;;
61389;SDS011;47260;48.274;19.814;2023-04-30T05:22:24;21.60;;;18.88;;
61389;SDS011;47260;48.274;19.814;2023-04-30T05:23:56;19.58;;;17.55;;
61389;SDS011;47260;48.274;19.814;2023-04-30T05:25:27;21.85;;;17.73;;
61389;SDS011;47260;48.274;19.814;2023-04-30T05:26:59;20.05;;;17.77;;
61389;SDS011;47260;48.274;19.814;2023-04-30T05:28:31;18.23;;;15.60;;
61389;SDS011;47260;48.274;19.814;2023-04-30T05:30:04;18.92;;;14.98;;
61389;SDS011;47260;48.274;19.814;2023-04-30T05:31:36;16.80;;;13.40;;
61389;SDS011;47260;48.274;19.814;2023-04-30T05:33:08;13.23;;;11.75;;
61389;SDS011;47260;48.274;19.814;2023-04-30T05:34:40;13.52;;;11.98;;
61389;SDS011;47260;48.274;19.814;2023-04-30T05:36:13;13.20;;;10.95;;
61389;SDS011;47260;48.274;19.814;2023-04-30T05:37:45;12.07;;;10.80;;
61389;SDS011;47260;48.274;19.814;2023-04-30T05:39:17;12.40;;;10.95;;
61389;SDS011;47260;48.274;19.814;2023-04-30T05:40:49;16.58;;;14.65;;
61389;SDS011;47260;48.274;19.814;2023-04-30T05:42:20;13.93;;;12.50;;
61389;SDS011;47260;48.274;19.814;2023-04-30T05:43:52;14.57;;;13.05;;
61389;SDS011;47260;48.274;19.814;2023-04-30T05:45:24;14.15;;;11.80;;
61389;SDS011;47260;48.274;19.814;2023-04-30T05:46:56;16.88;;;12.63;;
61389;SDS011;47260;48.274;19.814;2023-04-30T05:48:27;14.25;;;12.25;;
61389;SDS011;47260;48.274;19.814;2023-04-30T05:49:59;13.00;;;11.20;;
61389;SDS011;47260;48.274;19.814;2023-04-30T05:51:32;17.20;;;11.75;;
61389;SDS011;47260;48.274;19.814;2023-04-30T05:53:04;15.13;;;12.63;;
61389;SDS011;47260;48.274;19.814;2023-04-30T05:54:35;14.27;;;12.02;;
61389;SDS011;47260;48.274;19.814;2023-04-30T05:56:07;11.38;;;10.32;;
61389;SDS011;47260;48.274;19.814;2023-04-30T05:57:39;10.77;;;9.68;;
61389;SDS011;47260;48.274;19.814;2023-04-30T05:59:10;14.07;;;11.15;;
61389;SDS011;47260;48.274;19.814;2023-04-30T06:00:43;11.40;;;10.30;;
61389;SDS011;47260;48.274;19.814;2023-04-30T06:02:14;10.98;;;9.88;;
61389;SDS011;47260;48.274;19.814;2023-04-30T06:03:46;14.35;;;9.88;;
61389;SDS011;47260;48.274;19.814;2023-04-30T06:05:18;10.07;;;8.93;;
61389;SDS011;47260;48.274;19.814;2023-04-30T06:06:51;11.73;;;9.13;;
61389;SDS011;47260;48.274;19.814;2023-04-30T06:08:22;10.80;;;9.70;;
61389;SDS011;47260;48.274;19.814;2023-04-30T06:09:54;11.23;;;9.98;;
61389;SDS011;47260;48.274;19.814;2023-04-30T06:11:26;10.77;;;9.63;;
61389;SDS011;47260;48.274;19.814;2023-04-30T06:12:58;10.40;;;9.30;;
61389;SDS011;47260;48.274;19.814;2023-04-30T06:14:29;12.20;;;10.00;;
61389;SDS011;47260;48.274;19.814;2023-04-30T06:16:01;11.73;;;10.18;;
61389;SDS011;47260;48.274;19.814;2023-04-30T06:17:33;12.80;;;10.63;;
61389;SDS011;47260;48.274;19.814;2023-04-30T06:19:04;14.75;;;11.10;;
61389;SDS011;47260;48.274;19.814;2023-04-30T06:20:36;12.65;;;10.90;;
61389;SDS011;47260;48.274;19.814;2023-04-30T06:22:09;11.82;;;9.65;;
61389;SDS011;47260;48.274;19.814;2023-04-30T06:23:41;12.43;;;10.18;;
61389;SDS011;47260;48.274;19.814;2023-04-30T06:25:12;12.70;;;10.35;;
61389;SDS011;47260;48.274;19.814;2023-04-30T06:26:44;13.00;;;11.10;;
61389;SDS011;47260;48.274;19.814;2023-04-30T06:28:16;12.50;;;11.15;;
61389;SDS011;47260;48.274;19.814;2023-04-30T06:29:48;11.25;;;10.07;;
61389;SDS011;47260;48.274;19.814;2023-04-30T06:31:19;12.25;;;11.00;;
61389;SDS011;47260;48.274;19.814;2023-04-30T06:32:51;12.23;;;10.27;;
61389;SDS011;47260;48.274;19.814;2023-04-30T06:34:23;12.23;;;10.93;;
61389;SDS011;47260;48.274;19.814;2023-04-30T06:35:54;13.57;;;11.88;;
61389;SDS011;47260;48.274;19.814;2023-04-30T06:37:28;11.18;;;10.05;;
61389;SDS011;47260;48.274;19.814;2023-04-30T06:39:04;12.65;;;11.40;;
61389;SDS011;47260;48.274;19.814;2023-04-30T06:40:36;12.63;;;11.30;;
61389;SDS011;47260;48.274;19.814;2023-04-30T06:42:08;13.05;;;11.00;;
61389;SDS011;47260;48.274;19.814;2023-04-30T06:43:39;10.35;;;9.30;;
61389;SDS011;47260;48.274;19.814;2023-04-30T06:45:11;10.63;;;9.30;;
61389;SDS011;47260;48.274;19.814;2023-04-30T06:46:44;10.38;;;9.32;;
61389;SDS011;47260;48.274;19.814;2023-04-30T06:48:16;11.57;;;10.40;;
61389;SDS011;47260;48.274;19.814;2023-04-30T06:49:47;13.45;;;9.80;;
61389;SDS011;47260;48.274;19.814;2023-04-30T06:51:19;10.95;;;9.85;;
61389;SDS011;47260;48.274;19.814;2023-04-30T06:52:52;10.40;;;9.30;;
61389;SDS011;47260;48.274;19.814;2023-04-30T06:54:24;9.13;;;8.32;;
61389;SDS011;47260;48.274;19.814;2023-04-30T06:55:56;12.20;;;8.48;;
61389;SDS011;47260;48.274;19.814;2023-04-30T06:57:28;9.05;;;8.15;;
61389;SDS011;47260;48.274;19.814;2023-04-30T06:59:01;9.05;;;8.00;;
61389;SDS011;47260;48.274;19.814;2023-04-30T07:00:32;8.32;;;7.45;;
61389;SDS011;47260;48.274;19.814;2023-04-30T07:02:05;8.45;;;7.65;;
61389;SDS011;47260;48.274;19.814;2023-04-30T07:03:37;12.18;;;8.30;;
61389;SDS011;47260;48.274;19.814;2023-04-30T07:05:08;8.57;;;7.78;;
61389;SDS011;47260;48.274;19.814;2023-04-30T07:06:42;9.15;;;8.35;;
61389;SDS011;47260;48.274;19.814;2023-04-30T07:08:15;8.98;;;7.82;;
61389;SDS011;47260;48.274;19.814;2023-04-30T07:09:46;8.73;;;7.38;;
61389;SDS011;47260;48.274;19.814;2023-04-30T07:11:18;6.78;;;6.10;;
61389;SDS011;47260;48.274;19.814;2023-04-30T07:12:50;6.45;;;5.22;;
61389;SDS011;47260;48.274;19.814;2023-04-30T07:14:21;6.65;;;5.97;;
61389;SDS011;47260;48.274;19.814;2023-04-30T07:15:53;6.60;;;6.00;;
61389;SDS011;47260;48.274;19.814;2023-04-30T07:17:24;8.63;;;6.57;;
61389;SDS011;47260;48.274;19.814;2023-04-30T07:18:56;8.10;;;6.35;;
61389;SDS011;47260;48.274;19.814;2023-04-30T07:20:29;6.88;;;5.90;;
61389;SDS011;47260;48.274;19.814;2023-04-30T07:22:00;7.38;;;4.88;;
61389;SDS011;47260;48.274;19.814;2023-04-30T07:23:33;6.25;;;5.68;;
61389;SDS011;47260;48.274;19.814;2023-04-30T07:25:05;5.93;;;5.32;;
61389;SDS011;47260;48.274;19.814;2023-04-30T07:26:37;5.25;;;4.65;;
61389;SDS011;47260;48.274;19.814;2023-04-30T07:28:09;4.47;;;3.95;;
61389;SDS011;47260;48.274;19.814;2023-04-30T07:29:40;5.63;;;4.88;;
61389;SDS011;47260;48.274;19.814;2023-04-30T07:31:12;4.50;;;4.10;;
61389;SDS011;47260;48.274;19.814;2023-04-30T07:32:44;5.60;;;5.03;;
61389;SDS011;47260;48.274;19.814;2023-04-30T07:34:15;9.57;;;6.50;;
61389;SDS011;47260;48.274;19.814;2023-04-30T07:35:47;8.30;;;5.40;;
61389;SDS011;47260;48.274;19.814;2023-04-30T07:37:19;7.88;;;5.72;;
61389;SDS011;47260;48.274;19.814;2023-04-30T07:38:52;5.68;;;5.18;;
61389;SDS011;47260;48.274;19.814;2023-04-30T07:40:24;6.15;;;5.55;;
61389;SDS011;47260;48.274;19.814;2023-04-30T07:41:55;6.93;;;5.90;;
61389;SDS011;47260;48.274;19.814;2023-04-30T07:43:27;7.93;;;6.10;;
61389;SDS011;47260;48.274;19.814;2023-04-30T07:45:00;7.97;;;6.20;;
61389;SDS011;47260;48.274;19.814;2023-04-30T07:46:33;7.05;;;6.10;;
61389;SDS011;47260;48.274;19.814;2023-04-30T07:48:05;6.53;;;5.78;;
61389;SDS011;47260;48.274;19.814;2023-04-30T07:49:37;6.70;;;5.63;;
61389;SDS011;47260;48.274;19.814;2023-04-30T07:51:08;6.43;;;5.80;;
61389;SDS011;47260;48.274;19.814;2023-04-30T07:52:40;7.10;;;5.80;;
61389;SDS011;47260;48.274;19.814;2023-04-30T07:54:13;6.40;;;5.80;;
61389;SDS011;47260;48.274;19.814;2023-04-30T07:55:45;7.75;;;6.43;;
61389;SDS011;47260;48.274;19.814;2023-04-30T07:57:17;7.05;;;6.35;;
61389;SDS011;47260;48.274;19.814;2023-04-30T07:58:48;6.57;;;5.97;;
61389;SDS011;47260;48.274;19.814;2023-04-30T08:00:20;5.70;;;5.18;;
61389;SDS011;47260;48.274;19.814;2023-04-30T08:01:52;6.82;;;5.75;;
61389;SDS011;47260;48.274;19.814;2023-04-30T08:03:24;7.20;;;5.85;;
61389;SDS011;47260;48.274;19.814;2023-04-30T08:04:56;7.20;;;6.18;;
61389;SDS011;47260;48.274;19.814;2023-04-30T08:06:27;6.05;;;5.45;;
61389;SDS011;47260;48.274;19.814;2023-04-30T08:07:59;6.25;;;5.63;;
61389;SDS011;47260;48.274;19.814;2023-04-30T08:09:33;7.70;;;5.78;;
61389;SDS011;47260;48.274;19.814;2023-04-30T08:11:04;8.40;;;6.38;;
61389;SDS011;47260;48.274;19.814;2023-04-30T08:12:36;7.68;;;5.85;;
61389;SDS011;47260;48.274;19.814;2023-04-30T08:14:08;6.75;;;6.15;;
61389;SDS011;47260;48.274;19.814;2023-04-30T08:15:40;7.25;;;5.90;;
61389;SDS011;47260;48.274;19.814;2023-04-30T08:17:12;6.57;;;5.55;;
61389;SDS011;47260;48.274;19.814;2023-04-30T08:18:43;5.72;;;5.20;;
61389;SDS011;47260;48.274;19.814;2023-04-30T08:20:15;7.63;;;5.68;;
61389;SDS011;47260;48.274;19.814;2023-04-30T08:21:48;7.22;;;5.40;;
61389;SDS011;47260;48.274;19.814;2023-04-30T08:23:19;5.45;;;4.95;;
61389;SDS011;47260;48.274;19.814;2023-04-30T08:24:52;5.50;;;5.00;;
61389;SDS011;47260;48.274;19.814;2023-04-30T08:26:25;10.93;;;5.70;;
61389;SDS011;47260;48.274;19.814;2023-04-30T08:27:56;6.32;;;5.32;;
61389;SDS011;47260;48.274;19.814;2023-04-30T08:29:28;5.53;;;4.72;;
61389;SDS011;47260;48.274;19.814;2023-04-30T08:31:00;6.47;;;5.57;;
61389;SDS011;47260;48.274;19.814;2023-04-30T08:32:32;6.05;;;5.45;;
61389;SDS011;47260;48.274;19.814;2023-04-30T08:34:04;6.65;;;5.50;;
61389;SDS011;47260;48.274;19.814;2023-04-30T08:35:36;5.63;;;4.90;;
61389;SDS011;47260;48.274;19.814;2023-04-30T08:37:08;6.32;;;5.30;;
61389;SDS011;47260;48.274;19.814;2023-04-30T08:38:39;6.60;;;5.20;;
61389;SDS011;47260;48.274;19.814;2023-04-30T08:40:12;5.18;;;4.78;;
61389;SDS011;47260;48.274;19.814;2023-04-30T08:41:45;5.90;;;4.70;;
61389;SDS011;47260;48.274;19.814;2023-04-30T08:43:23;5.13;;;4.60;;
61389;SDS011;47260;48.274;19.814;2023-04-30T08:44:55;6.70;;;4.40;;
61389;SDS011;47260;48.274;19.814;2023-04-30T08:46:26;4.38;;;3.85;;
61389;SDS011;47260;48.274;19.814;2023-04-30T08:48:01;5.07;;;4.35;;
61389;SDS011;47260;48.274;19.814;2023-04-30T08:49:34;4.97;;;4.00;;
61389;SDS011;47260;48.274;19.814;2023-04-30T08:51:06;4.82;;;4.00;;
61389;SDS011;47260;48.274;19.814;2023-04-30T08:52:36;4.63;;;4.00;;
61389;SDS011;47260;48.274;19.814;2023-04-30T08:54:09;4.50;;;4.10;;
61389;SDS011;47260;48.274;19.814;2023-04-30T08:55:45;5.20;;;3.90;;
61389;SDS011;47260;48.274;19.814;2023-04-30T08:57:17;5.07;;;4.20;;
61389;SDS011;47260;48.274;19.814;2023-04-30T08:58:49;5.07;;;3.80;;
61389;SDS011;47260;48.274;19.814;2023-04-30T09:00:20;5.50;;;4.10;;